Time;durP1;ratioP1;P1;durP2;ratioP2;P2;SDS_P1;SDS_P2;PMS_P1;PMS_P2;Temp;Humidity;BMP_temperature;BMP_pressure;BME280_temperature;BME280_humidity;BME280_pressure;Samples;Min_cycle;Max_cycle;Signal;HPM_P1;HPM_P2
2022/01/18 00:01:09;;;;;;;16.10;10.63;;;4.00;99.90;;;3.12;100.00;98998.78;4983935;28;20034;-47
2022/01/18 00:03:34;;;;;;;17.30;10.65;;;3.90;99.90;;;3.12;100.00;98998.78;4989473;28;20112;-47
2022/01/18 00:06:00;;;;;;;19.35;10.43;;;3.90;99.90;;;3.14;100.00;98998.00;4983175;28;20368;-46
2022/01/18 00:08:26;;;;;;;15.05;8.93;;;3.90;99.90;;;3.17;100.00;99000.63;4984954;28;20033;-45
2022/01/18 00:10:52;;;;;;;16.35;9.32;;;3.90;99.90;;;3.17;100.00;99003.22;4990005;28;20034;-46
2022/01/18 00:13:39;;;;;;;14.00;9.10;;;4.00;99.90;;;3.13;100.00;98987.53;4981730;28;20040;-44
2022/01/18 00:18:36;;;;;;;13.18;8.18;;;4.00;99.90;;;3.26;100.00;98997.31;4981058;28;20029;-47
2022/01/18 00:23:35;;;;;;;15.55;9.30;;;4.00;99.90;;;3.24;100.00;99005.09;4989093;28;20049;-44
2022/01/18 00:26:05;;;;;;;15.95;9.75;;;4.10;99.90;;;3.19;100.00;99013.69;4992135;28;20049;-50
2022/01/18 00:28:32;;;;;;;17.42;10.35;;;4.00;99.90;;;3.17;100.00;99016.28;4992625;28;20526;-49
2022/01/18 00:36:39;;;;;;;16.98;10.00;;;4.00;99.90;;;3.19;100.00;99022.38;4986694;28;20126;-46
2022/01/18 00:39:09;;;;;;;14.68;9.43;;;4.00;99.90;;;3.22;100.00;99022.44;4985664;28;20500;-48
2022/01/18 00:41:37;;;;;;;21.25;10.32;;;4.00;99.90;;;3.18;100.00;99025.88;4991007;28;20087;-49
2022/01/18 00:44:03;;;;;;;14.85;9.60;;;4.00;99.90;;;3.23;100.00;99031.16;4990081;28;20053;-45
2022/01/18 00:46:30;;;;;;;17.55;10.30;;;4.00;99.90;;;3.18;100.00;99018.03;4989368;28;20042;-48
2022/01/18 00:48:58;;;;;;;16.25;9.20;;;4.00;99.90;;;3.11;100.00;99007.47;4990033;28;20037;-47
2022/01/18 00:51:24;;;;;;;15.95;9.40;;;4.00;99.90;;;3.22;100.00;99021.59;4990496;28;20170;-47
2022/01/18 00:53:50;;;;;;;13.60;8.98;;;4.00;99.90;;;3.19;100.00;99025.00;4991107;28;20056;-47
2022/01/18 00:56:22;;;;;;;15.52;9.98;;;4.00;99.90;;;3.22;100.00;99029.41;4983056;28;20022;-44
2022/01/18 00:58:50;;;;;;;17.17;10.00;;;4.00;99.90;;;3.25;100.00;99032.09;4980647;28;20447;-47
2022/01/18 01:01:19;;;;;;;16.08;9.18;;;4.00;99.90;;;3.25;100.00;99022.53;4986131;28;20026;-46
2022/01/18 01:03:45;;;;;;;21.35;11.05;;;4.10;99.90;;;3.24;100.00;99028.56;4989586;28;20026;-47
2022/01/18 01:06:12;;;;;;;18.52;10.93;;;4.10;99.90;;;3.25;100.00;99030.34;4989862;28;20030;-49
2022/01/18 01:08:37;;;;;;;17.58;10.35;;;4.00;99.90;;;3.23;100.00;99037.25;4983638;28;20400;-46
2022/01/18 01:11:09;;;;;;;15.75;10.07;;;4.10;99.90;;;3.23;100.00;99033.75;4977075;28;20570;-46
2022/01/18 01:13:42;;;;;;;17.33;10.50;;;4.10;99.90;;;3.21;100.00;99033.75;4982049;28;20089;-46
2022/01/18 01:19:05;;;;;;;18.38;10.38;;;4.00;99.90;;;3.16;100.00;99043.22;4983689;28;20236;-48
2022/01/18 01:43:49;;;;;;;14.73;8.80;;;3.90;99.90;;;3.11;100.00;99049.19;4982046;28;20065;-51
2022/01/18 01:45:44;;;;;;;14.73;9.40;;;3.90;99.90;;;3.15;100.00;99051.88;4963547;28;20847;-43
2022/01/18 01:48:10;;;;;;;14.57;10.02;;;4.00;99.90;;;3.18;100.00;99057.16;4985751;28;20046;-47
2022/01/18 01:53:13;;;;;;;18.52;9.80;;;4.00;99.90;;;3.28;100.00;99065.16;4980041;28;20139;-46
2022/01/18 01:55:40;;;;;;;17.77;9.77;;;4.00;99.90;;;3.30;100.00;99071.25;4981864;28;20034;-48
2022/01/18 01:58:06;;;;;;;18.25;11.00;;;4.00;99.90;;;3.32;100.00;99064.34;4979768;28;20034;-47
2022/01/18 02:00:33;;;;;;;16.63;10.18;;;4.10;99.90;;;3.35;100.00;99070.50;4991705;28;20440;-43
2022/01/18 02:02:59;;;;;;;16.35;11.07;;;4.10;99.90;;;3.33;100.00;99071.34;4986472;28;20052;-46
2022/01/18 02:05:25;;;;;;;17.63;10.70;;;4.10;99.90;;;3.40;100.00;99070.59;4985107;28;20042;-46
2022/01/18 02:07:51;;;;;;;16.83;10.52;;;4.20;99.90;;;3.43;100.00;99070.66;4991754;28;20049;-48
2022/01/18 02:10:17;;;;;;;20.33;11.25;;;4.20;99.90;;;3.43;100.00;99071.53;4982536;28;20431;-48
2022/01/18 02:12:43;;;;;;;16.60;10.52;;;4.20;99.90;;;3.48;100.00;99068.13;4976346;28;20405;-48
2022/01/18 02:15:14;;;;;;;18.77;10.63;;;4.20;99.90;;;3.51;100.00;99073.41;4981118;28;20065;-47
2022/01/18 02:23:26;;;;;;;18.95;12.43;;;4.20;99.90;;;3.30;100.00;99068.66;4981588;28;20651;-47
2022/01/18 02:25:53;;;;;;;25.42;12.75;;;4.10;99.90;;;3.19;100.00;99061.50;4980135;28;20045;-45
2022/01/18 02:28:22;;;;;;;21.35;12.55;;;4.10;99.90;;;3.17;100.00;99060.59;4981185;28;20105;-44
2022/01/18 02:30:48;;;;;;;21.67;12.73;;;4.00;99.90;;;3.14;100.00;99068.38;4978281;28;20473;-45
2022/01/18 02:33:15;;;;;;;23.15;12.65;;;4.00;99.90;;;3.10;100.00;99058.72;4985012;28;20034;-46
2022/01/18 02:35:41;;;;;;;18.95;11.77;;;3.90;99.90;;;3.13;100.00;99073.56;4979091;28;20169;-45
2022/01/18 02:38:07;;;;;;;19.48;10.82;;;3.90;99.90;;;3.14;100.00;99073.59;4974706;28;20030;-43
2022/01/18 02:40:33;;;;;;;20.63;11.35;;;3.90;99.90;;;3.22;100.00;99068.53;4969238;28;20034;-44
2022/01/18 02:43:46;;;;;;;17.60;10.68;;;4.00;99.90;;;3.23;100.00;99071.16;4979606;28;20037;-46
2022/01/18 02:45:51;;;;;;;19.90;11.95;;;4.00;99.90;;;3.15;100.00;99072.72;4988254;28;20057;-48
2022/01/18 02:48:18;;;;;;;19.75;10.90;;;4.00;99.90;;;3.19;100.00;99071.06;4977412;28;20026;-48
2022/01/18 02:50:44;;;;;;;15.77;10.05;;;4.00;99.90;;;3.21;100.00;99064.13;4976881;28;20136;-45
2022/01/18 02:53:10;;;;;;;17.15;10.82;;;4.00;99.90;;;3.26;100.00;99067.72;4976777;28;20519;-46
2022/01/18 02:55:35;;;;;;;17.63;11.23;;;4.00;99.90;;;3.28;100.00;99067.75;4983737;28;20060;-50
2022/01/18 02:58:09;;;;;;;17.23;11.07;;;4.00;99.90;;;3.35;100.00;99061.81;4980941;28;20337;-47
2022/01/18 03:03:24;;;;;;;18.05;11.18;;;4.10;99.90;;;3.30;100.00;99050.41;4975422;28;20110;-48
2022/01/18 03:05:50;;;;;;;19.90;11.50;;;4.10;99.90;;;3.35;100.00;99048.75;4982561;28;20033;-49
2022/01/18 03:08:17;;;;;;;22.88;11.27;;;4.10;99.90;;;3.34;100.00;99052.22;4976370;28;20038;-46
2022/01/18 03:10:43;;;;;;;19.17;11.43;;;4.10;99.90;;;3.34;100.00;99052.22;4976763;28;20525;-48
2022/01/18 03:13:09;;;;;;;21.42;11.40;;;4.10;99.90;;;3.35;100.00;99056.59;4977340;28;20331;-48
2022/01/18 03:15:36;;;;;;;16.50;10.85;;;4.10;99.90;;;3.31;100.00;99054.78;4982341;28;20114;-45
2022/01/18 03:18:04;;;;;;;18.25;11.73;;;4.10;99.90;;;3.32;100.00;99048.69;4983886;28;20035;-45
2022/01/18 03:20:30;;;;;;;19.27;11.75;;;4.10;99.90;;;3.31;100.00;99050.44;4978910;28;20037;-48
2022/01/18 03:22:56;;;;;;;16.02;11.30;;;4.10;99.90;;;3.31;100.00;99053.03;4984532;28;20416;-43
2022/01/18 03:25:28;;;;;;;21.38;12.35;;;4.10;99.90;;;3.34;100.00;99053.09;4982259;28;20087;-45
2022/01/18 03:28:06;;;;;;;21.75;12.10;;;4.10;99.90;;;3.32;100.00;99059.13;4984772;28;20030;-45
2022/01/18 03:30:42;;;;;;;21.55;11.90;;;4.10;99.90;;;3.29;100.00;99053.88;4985427;28;20050;-45
2022/01/18 03:33:17;;;;;;;17.60;12.00;;;4.10;99.90;;;3.34;100.00;99062.63;4986678;28;20084;-46
2022/01/18 03:35:44;;;;;;;22.55;12.68;;;4.10;99.90;;;3.32;100.00;99060.03;4990678;28;20088;-46
2022/01/18 03:38:12;;;;;;;20.55;11.35;;;4.10;99.90;;;3.36;100.00;99058.34;4985836;28;20551;-46
2022/01/18 03:40:38;;;;;;;19.02;11.80;;;4.10;99.90;;;3.35;100.00;99056.59;4969672;28;20041;-45
2022/01/18 03:43:06;;;;;;;19.55;12.13;;;4.10;99.90;;;3.35;100.00;99052.25;4988657;28;20455;-45
2022/01/18 03:45:41;;;;;;;20.55;12.48;;;4.10;99.90;;;3.38;100.00;99052.31;4991170;28;20030;-44
2022/01/18 03:48:13;;;;;;;22.50;13.02;;;4.10;99.90;;;3.36;100.00;99054.00;4988177;28;20108;-45
2022/01/18 03:50:38;;;;;;;19.90;13.02;;;4.10;99.90;;;3.41;100.00;99056.69;4989489;28;20046;-45
2022/01/18 03:53:04;;;;;;;20.23;12.10;;;4.20;99.90;;;3.43;100.00;99052.41;4989413;28;20033;-46
2022/01/18 03:55:30;;;;;;;18.55;11.68;;;4.20;99.90;;;3.44;100.00;99056.75;4991511;28;20088;-46
2022/01/18 03:57:56;;;;;;;20.15;12.38;;;4.20;99.90;;;3.46;100.00;99064.59;4985966;28;20288;-46
2022/01/18 04:00:25;;;;;;;20.25;11.82;;;4.20;99.90;;;3.47;100.00;99058.56;4982926;28;20985;-48
2022/01/18 04:02:53;;;;;;;19.00;12.18;;;4.20;99.90;;;3.47;100.00;99063.78;4983729;28;20038;-45
2022/01/18 04:05:19;;;;;;;20.92;12.70;;;4.20;99.90;;;3.46;100.00;99065.47;4981995;28;20034;-43
2022/01/18 04:07:45;;;;;;;20.00;12.32;;;4.30;99.90;;;3.41;100.00;99077.56;4991609;28;20066;-48
2022/01/18 04:10:11;;;;;;;21.25;12.35;;;4.20;99.90;;;3.40;100.00;99074.06;4981276;28;20113;-47
2022/01/18 04:12:38;;;;;;;22.88;12.73;;;4.20;99.90;;;3.40;100.00;99074.06;4982764;28;20388;-48
2022/01/18 04:15:11;;;;;;;23.20;13.55;;;4.20;99.90;;;3.42;100.00;99076.72;4988302;28;20575;-47
2022/01/18 04:30:53;;;;;;;16.67;10.95;;;4.20;99.90;;;3.40;100.00;99088.84;4978018;28;20440;-43
2022/01/18 04:33:19;;;;;;;21.98;12.88;;;4.20;99.90;;;3.37;100.00;99079.22;4981383;28;20076;-50
2022/01/18 04:35:45;;;;;;;19.10;11.88;;;4.10;99.90;;;3.23;100.00;99059.84;5028590;23;20033;-90
2022/01/18 04:38:12;;;;;;;20.58;12.63;;;4.10;99.90;;;3.37;100.00;99080.97;5012665;28;20032;-90
2022/01/18 04:40:41;;;;;;;18.30;11.85;;;4.10;99.90;;;3.24;100.00;99061.59;5013190;28;20115;-89
2022/01/18 04:48:37;;;;;;;26.00;14.45;;;4.10;99.90;;;3.02;100.00;99060.31;5002307;28;20414;-89
2022/01/18 04:51:09;;;;;;;29.20;14.70;;;4.00;99.90;;;3.15;100.00;99093.59;5044373;23;20538;-49
2022/01/18 04:53:40;;;;;;;24.30;14.02;;;4.00;99.90;;;3.09;100.00;99095.19;4971026;28;20184;-49
2022/01/18 04:56:13;;;;;;;21.80;13.65;;;3.90;99.90;;;3.06;100.00;99093.41;4975208;28;20026;-53
2022/01/18 04:58:40;;;;;;;22.00;12.35;;;3.90;99.90;;;3.10;100.00;99094.34;4973518;28;20072;-51
2022/01/18 05:01:08;;;;;;;23.63;13.63;;;3.90;99.90;;;3.08;100.00;99102.13;4970868;28;20038;-53
2022/01/18 05:03:35;;;;;;;24.30;13.40;;;3.90;99.90;;;3.06;100.00;99103.84;4980006;28;20496;-49
2022/01/18 05:06:08;;;;;;;24.02;13.05;;;3.90;99.90;;;3.04;100.00;99108.16;4980573;28;20042;-49
2022/01/18 05:08:36;;;;;;;19.48;11.48;;;3.80;99.90;;;3.04;100.00;99097.72;4982879;28;20034;-51
2022/01/18 05:11:02;;;;;;;22.95;11.80;;;3.80;99.90;;;3.01;100.00;99097.66;4981090;28;20022;-51
2022/01/18 05:23:52;;;;;;;24.67;14.23;;;3.80;99.90;;;2.97;100.00;99095.84;4978162;28;20189;-48
2022/01/18 05:26:19;;;;;;;25.08;14.45;;;3.70;99.90;;;2.88;100.00;99088.69;4980069;28;20202;-54
2022/01/18 05:28:44;;;;;;;25.33;13.70;;;3.70;99.90;;;2.92;100.00;99105.28;4980091;28;20030;-50
2022/01/18 05:31:10;;;;;;;26.02;13.32;;;3.70;99.90;;;2.97;100.00;99111.47;4974949;28;20496;-51
2022/01/18 05:33:38;;;;;;;25.42;14.07;;;3.70;99.90;;;3.00;100.00;99106.34;4977536;28;20092;-48
2022/01/18 05:36:05;;;;;;;24.30;13.85;;;3.70;99.90;;;3.03;100.00;99095.94;4973755;28;20416;-50
2022/01/18 05:38:32;;;;;;;29.08;15.40;;;3.80;99.90;;;3.09;100.00;99109.13;4979698;28;20069;-52
2022/01/18 05:40:58;;;;;;;30.67;16.83;;;3.80;99.90;;;3.10;100.00;99110.00;4982745;28;20579;-50
2022/01/18 05:43:24;;;;;;;32.22;16.98;;;3.90;99.90;;;2.99;100.00;99114.97;4979236;28;20129;-53
2022/01/18 05:45:49;;;;;;;33.25;16.75;;;3.80;99.90;;;2.94;100.00;99108.78;4973334;28;20109;-49
2022/01/18 05:48:15;;;;;;;30.33;16.42;;;3.80;99.90;;;2.99;100.00;99107.16;4982653;28;20413;-52
2022/01/18 05:50:41;;;;;;;32.15;17.27;;;3.70;99.90;;;2.93;100.00;99117.47;4977912;28;20698;-49
2022/01/18 05:53:07;;;;;;;28.45;16.63;;;3.70;99.90;;;2.92;100.00;99113.09;4977738;28;20042;-49
2022/01/18 05:55:32;;;;;;;28.90;16.90;;;3.70;99.90;;;2.92;100.00;99111.34;4977601;28;20042;-52
2022/01/18 05:57:58;;;;;;;30.88;16.23;;;3.70;99.90;;;3.00;100.00;99116.75;4980663;28;20041;-52
2022/01/18 06:00:26;;;;;;;30.48;17.42;;;3.70;99.90;;;2.98;100.00;99102.78;4979387;28;20503;-50
2022/01/18 06:08:09;;;;;;;32.97;17.67;;;3.80;99.90;;;3.04;100.00;99115.97;4978829;28;20114;-51
2022/01/18 06:10:36;;;;;;;32.22;17.38;;;3.80;99.90;;;3.04;100.00;99115.97;4975104;28;20113;-52
2022/01/18 06:13:03;;;;;;;28.80;16.80;;;3.80;99.90;;;3.00;100.00;99122.84;4975121;28;20049;-51
2022/01/18 06:15:30;;;;;;;26.50;16.05;;;3.80;99.90;;;2.96;100.00;99122.72;4978398;28;20073;-51
2022/01/18 06:17:56;;;;;;;31.73;18.15;;;3.80;99.90;;;2.92;100.00;99111.34;4981447;28;20042;-51
2022/01/18 06:20:22;;;;;;;30.60;17.38;;;3.80;99.90;;;2.92;100.00;99111.34;4978395;28;20042;-49
2022/01/18 06:22:51;;;;;;;31.00;16.13;;;3.70;99.90;;;2.93;100.00;99120.09;4979924;28;20075;-48
2022/01/18 06:25:18;;;;;;;33.60;17.15;;;3.70;99.90;;;2.88;100.00;99119.97;4979967;28;20026;-49
2022/01/18 06:27:44;;;;;;;29.50;16.13;;;3.70;99.90;;;2.88;100.00;99119.09;4980862;28;20034;-52
2022/01/18 06:30:11;;;;;;;32.72;16.02;;;3.70;99.90;;;2.83;100.00;99119.84;4981038;28;20453;-52
2022/01/18 06:32:39;;;;;;;32.83;16.77;;;3.70;99.90;;;2.87;100.00;99118.19;4973684;28;20085;-54
2022/01/18 06:35:06;;;;;;;29.85;16.83;;;3.70;99.90;;;2.91;100.00;99130.47;4980191;28;20034;-52
2022/01/18 06:37:32;;;;;;;27.65;16.25;;;3.70;99.90;;;2.81;100.00;99113.75;4980406;28;20034;-50
2022/01/18 06:39:59;;;;;;;27.52;15.80;;;3.70;99.90;;;2.94;100.00;99130.50;4980901;28;20030;-50
2022/01/18 06:42:25;;;;;;;29.00;15.82;;;3.70;99.90;;;3.05;100.00;99130.75;4979828;28;20035;-54
2022/01/18 06:44:52;;;;;;;27.20;14.68;;;3.80;99.90;;;3.03;100.00;99145.47;4982433;28;20037;-53
2022/01/18 06:47:17;;;;;;;25.60;15.32;;;3.80;99.90;;;3.03;100.00;99148.06;4978241;28;20040;-50
2022/01/18 06:49:43;;;;;;;30.55;16.05;;;3.80;99.90;;;2.97;100.00;99154.03;4979615;28;20030;-52
2022/01/18 06:52:09;;;;;;;28.95;16.50;;;3.80;99.90;;;3.00;100.00;99151.50;4979638;28;20034;-53
2022/01/18 06:54:35;;;;;;;31.05;18.13;;;3.80;99.90;;;2.93;100.00;99159.19;4978328;28;20033;-51
2022/01/18 06:57:01;;;;;;;33.47;18.13;;;3.70;99.90;;;2.90;100.00;99154.75;4976759;28;20026;-49
2022/01/18 06:59:26;;;;;;;30.23;16.75;;;3.70;99.90;;;2.93;100.00;99153.97;4976747;28;20043;-50
2022/01/18 07:01:52;;;;;;;34.03;17.25;;;3.70;99.90;;;2.88;100.00;99158.19;4974695;28;20049;-50
2022/01/18 07:04:18;;;;;;;30.33;17.48;;;3.70;99.90;;;2.91;100.00;99158.25;4979440;28;20053;-52
2022/01/18 07:06:45;;;;;;;34.28;16.95;;;3.70;99.90;;;2.89;100.00;99166.06;4979336;28;20034;-50
2022/01/18 07:09:13;;;;;;;33.50;18.38;;;3.60;99.90;;;2.82;100.00;99162.41;4975362;28;20046;-52
2022/01/18 07:11:39;;;;;;;30.75;17.63;;;3.60;99.90;;;2.82;100.00;99161.56;4979626;28;20104;-54
2022/01/18 07:14:05;;;;;;;32.42;16.98;;;3.60;99.90;;;2.86;100.00;99164.25;4977521;28;20026;-49
2022/01/18 07:16:31;;;;;;;30.50;17.60;;;3.60;99.90;;;2.84;100.00;99160.72;4980129;28;20038;-51
2022/01/18 07:18:57;;;;;;;31.08;17.10;;;3.60;99.90;;;2.91;100.00;99166.06;4978393;28;20026;-54
2022/01/18 07:21:22;;;;;;;30.33;16.88;;;3.70;99.90;;;2.91;100.00;99164.34;4979032;28;20081;-50
2022/01/18 07:23:51;;;;;;;29.52;16.17;;;3.70;99.90;;;2.94;100.00;99161.78;4980506;28;20449;-51
2022/01/18 07:26:17;;;;;;;32.95;16.02;;;3.70;99.90;;;2.94;100.00;99164.41;4976988;28;20023;-48
2022/01/18 07:28:42;;;;;;;31.48;17.10;;;3.70;99.90;;;2.99;100.00;99172.34;4979689;28;20503;-51
2022/01/18 07:31:08;;;;;;;33.15;16.90;;;3.80;99.90;;;3.01;100.00;99171.50;4973459;28;20030;-49
2022/01/18 07:33:36;;;;;;;30.48;17.98;;;3.80;99.90;;;2.99;100.00;99180.16;4978351;28;20780;-52
2022/01/18 07:36:02;;;;;;;34.75;17.77;;;3.80;99.90;;;2.98;100.00;99176.69;4978585;28;22786;-53
2022/01/18 07:38:28;;;;;;;33.63;17.27;;;3.80;99.90;;;3.00;100.00;99176.72;4978938;28;20041;-53
2022/01/18 07:40:53;;;;;;;34.58;17.58;;;3.80;99.90;;;2.96;100.00;99175.75;4979527;28;20038;-51
2022/01/18 07:43:20;;;;;;;32.88;18.45;;;3.80;99.90;;;2.98;100.00;99178.38;4978416;28;20440;-51
2022/01/18 07:45:48;;;;;;;32.00;17.52;;;3.80;99.90;;;3.02;100.00;99177.63;4979409;28;20026;-50
2022/01/18 07:48:13;;;;;;;27.75;17.23;;;3.80;99.90;;;3.14;100.00;99193.53;4978628;28;20038;-48
2022/01/18 07:50:41;;;;;;;28.92;16.95;;;3.90;99.90;;;3.18;100.00;99191.88;4978887;28;20030;-50
2022/01/18 07:53:07;;;;;;;35.90;17.98;;;3.90;99.90;;;3.21;100.00;99189.31;4981309;28;20105;-53
2022/01/18 07:55:33;;;;;;;30.35;16.70;;;4.00;99.90;;;3.28;100.00;99195.53;4983512;28;20447;-51
2022/01/18 07:58:00;;;;;;;32.03;16.52;;;4.00;99.90;;;3.31;100.00;99191.25;4983194;28;20026;-50
2022/01/18 08:00:27;;;;;;;28.35;16.58;;;4.10;99.90;;;3.40;100.00;99195.78;4983818;28;20359;-51
2022/01/18 08:02:52;;;;;;;30.95;18.25;;;4.10;99.90;;;3.48;100.00;99196.81;4981187;28;20508;-48
2022/01/18 08:05:19;;;;;;;33.28;18.13;;;4.20;99.90;;;3.64;100.00;99205.81;4981371;28;20030;-50
2022/01/18 08:07:44;;;;;;;34.05;17.70;;;4.30;99.90;;;3.58;100.00;99188.31;4984946;28;20061;-49
2022/01/18 08:10:13;;;;;;;33.58;18.00;;;4.40;99.90;;;3.74;100.00;99205.16;4982906;28;20101;-49
2022/01/18 08:12:39;;;;;;;30.25;16.70;;;4.40;99.90;;;3.75;100.00;99198.22;4981992;28;20034;-52
2022/01/18 08:15:14;;;;;;;31.08;18.02;;;4.50;99.90;;;3.68;100.00;99170.22;4977138;28;20113;-54
2022/01/18 08:17:48;;;;;;;28.27;14.48;;;4.50;99.90;;;3.97;100.00;99202.13;4982036;28;20065;-54
2022/01/18 08:20:14;;;;;;;30.65;15.10;;;4.60;99.90;;;3.93;100.00;99201.19;4981864;28;20058;-48
2022/01/18 08:22:45;;;;;;;26.73;14.20;;;4.60;99.90;;;3.91;100.00;99205.50;4981510;28;20288;-53
2022/01/18 08:25:12;;;;;;;26.92;13.77;;;4.60;99.90;;;3.94;100.00;99212.50;4979790;28;20045;-47
2022/01/18 08:27:39;;;;;;;29.83;13.57;;;4.70;99.90;;;3.95;100.00;99199.47;4982501;28;20166;-54
2022/01/18 08:30:10;;;;;;;23.55;12.70;;;4.70;99.90;;;4.05;100.00;99213.56;4976832;28;20460;-52
2022/01/18 08:32:37;;;;;;;24.55;12.20;;;4.70;99.90;;;3.98;100.00;99215.22;4977198;28;20027;-54
2022/01/18 08:35:03;;;;;;;21.30;12.70;;;4.70;99.90;;;4.08;100.00;99208.41;4980852;28;20062;-54
2022/01/18 08:37:29;;;;;;;26.70;13.25;;;4.80;99.90;;;4.06;100.00;99209.25;4983221;28;20048;-51
2022/01/18 08:39:55;;;;;;;25.92;12.88;;;4.80;99.90;;;3.97;100.00;99196.91;4983099;28;20496;-52
2022/01/18 08:42:21;;;;;;;24.90;13.13;;;4.80;99.90;;;3.97;100.00;99205.59;4976641;28;20031;-51
2022/01/18 08:44:46;;;;;;;21.95;12.27;;;4.70;99.90;;;4.05;100.00;99210.09;4983056;28;20026;-51
2022/01/18 08:47:14;;;;;;;21.65;12.23;;;4.80;99.90;;;4.20;100.00;99210.38;4980263;28;20454;-48
2022/01/18 08:49:40;;;;;;;24.98;12.55;;;4.90;99.90;;;4.20;100.00;99211.25;4985343;28;20029;-51
2022/01/18 08:52:07;;;;;;;20.00;12.20;;;4.90;99.90;;;4.30;100.00;99217.50;4979879;28;20034;-51
2022/01/18 08:54:34;;;;;;;21.75;11.93;;;5.00;99.90;;;4.37;100.00;99218.47;4982543;28;20377;-49
2022/01/18 08:57:00;;;;;;;25.42;13.60;;;5.10;99.90;;;4.52;100.00;99212.63;4982625;28;20061;-48
2022/01/18 08:59:26;;;;;;;20.77;12.27;;;5.20;99.90;;;4.59;100.00;99215.38;4977113;28;20100;-49
2022/01/18 09:01:52;;;;;;;25.27;13.32;;;5.30;99.90;;;4.61;100.00;99219.75;4977563;28;20319;-54
2022/01/18 09:04:22;;;;;;;25.00;13.30;;;5.40;99.90;;;4.60;100.00;99205.81;4977640;28;20347;-49
2022/01/18 09:06:50;;;;;;;28.60;13.40;;;5.40;99.90;;;4.65;100.00;99217.22;4977945;28;20094;-49
2022/01/18 09:09:17;;;;;;;25.65;13.18;;;5.40;99.90;;;4.63;100.00;99199.72;4978415;28;20496;-49
2022/01/18 09:11:45;;;;;;;19.83;12.50;;;5.40;99.90;;;4.66;100.00;99216.34;4979015;28;20037;-53
2022/01/18 09:14:14;;;;;;;20.70;12.68;;;5.40;99.90;;;4.80;100.00;99213.06;4978194;28;20018;-49
2022/01/18 09:16:40;;;;;;;26.45;12.55;;;5.40;99.90;;;4.74;100.00;99219.09;4981270;28;20030;-50
2022/01/18 09:19:06;;;;;;;20.00;12.02;;;5.50;99.90;;;4.82;100.00;99217.47;4975561;28;20110;-50
2022/01/18 09:21:33;;;;;;;25.27;12.32;;;5.50;99.90;;;4.78;100.00;99213.06;4982519;28;20112;-52
2022/01/18 09:24:00;;;;;;;20.52;12.45;;;5.50;99.90;;;4.79;100.00;99214.78;4983021;28;20112;-49
2022/01/18 09:26:26;;;;;;;22.40;13.02;;;5.50;99.90;;;4.92;100.00;99213.25;4981216;28;20038;-52
2022/01/18 09:28:52;;;;;;;24.58;11.80;;;5.60;99.90;;;5.00;100.00;99215.97;4981503;28;20110;-53
2022/01/18 09:31:19;;;;;;;26.95;12.15;;;5.60;99.90;;;5.17;100.00;99219.72;4980739;28;20089;-49
2022/01/18 09:33:45;;;;;;;21.08;13.15;;;5.80;99.90;;;5.28;100.00;99212.88;4975531;28;20102;-48
2022/01/18 09:36:11;;;;;;;24.30;13.52;;;5.90;99.90;;;5.43;100.00;99225.28;4979592;28;20503;-50
2022/01/18 09:38:37;;;;;;;25.13;13.85;;;6.10;99.90;;;5.57;100.00;99215.00;4976909;28;20038;-52
2022/01/18 09:41:09;;;;;;;21.27;13.30;;;6.20;99.90;;;5.43;100.00;99220.06;4981260;28;20038;-49
2022/01/18 09:43:37;;;;;;;21.98;12.32;;;6.30;99.90;;;5.29;100.00;99216.38;4981799;28;20031;-53
2022/01/18 09:46:04;;;;;;;18.92;11.80;;;6.20;99.90;;;5.14;100.00;99220.53;4978891;28;20100;-49
2022/01/18 09:48:30;;;;;;;19.60;10.32;;;6.00;99.90;;;5.00;100.00;99234.28;4973842;28;20046;-52
2022/01/18 09:50:56;;;;;;;15.88;8.00;;;5.80;99.90;;;4.72;100.00;99224.28;4981032;28;20049;-53
2022/01/18 09:53:22;;;;;;;16.00;7.50;;;5.60;99.90;;;4.69;100.00;99229.47;4979801;28;20035;-49
2022/01/18 09:55:50;;;;;;;18.13;9.88;;;5.50;99.90;;;4.62;100.00;99230.22;4979518;28;20083;-49
2022/01/18 09:58:16;;;;;;;17.45;9.88;;;5.40;99.90;;;4.48;100.00;99216.91;4980321;28;20117;-49
2022/01/18 10:00:43;;;;;;;20.33;10.95;;;5.40;99.90;;;4.47;100.00;99236.09;4979302;28;20030;-51
2022/01/18 10:03:33;;;;;;;22.67;11.55;;;5.30;99.90;;;4.43;100.00;99231.63;4977616;28;20037;-51
2022/01/18 10:05:59;;;;;;;19.17;12.38;;;5.20;99.90;;;4.38;100.00;99235.94;4976782;28;20033;-51
2022/01/18 10:08:26;;;;;;;22.40;12.02;;;5.20;99.90;;;4.19;100.00;99213.81;4976466;28;20493;-51
2022/01/18 10:10:58;;;;;;;22.30;11.32;;;5.10;99.90;;;4.18;100.00;99217.28;4977875;28;20038;-51
2022/01/18 10:13:30;;;;;;;22.27;12.82;;;5.00;99.90;;;4.11;100.00;99218.00;4981354;28;20034;-48
2022/01/18 10:16:05;;;;;;;20.38;11.90;;;4.90;99.90;;;3.97;100.00;99220.41;4976530;28;20495;-43
2022/01/18 10:18:40;;;;;;;21.90;11.48;;;4.80;99.90;;;3.91;100.00;99222.88;4978269;28;20539;-46
2022/01/18 10:21:08;;;;;;;21.20;11.60;;;4.70;99.90;;;3.88;100.00;99225.44;4979100;28;20030;-41
2022/01/18 10:23:35;;;;;;;21.23;10.90;;;4.60;99.90;;;3.91;100.00;99215.03;4982861;28;20069;-44
2022/01/18 10:26:19;;;;;;;20.38;10.68;;;4.60;99.90;;;3.83;100.00;99209.69;4978906;28;20548;-41
2022/01/18 10:28:46;;;;;;;18.63;11.07;;;4.60;99.90;;;3.80;100.00;99214.84;4977315;28;20064;-45
2022/01/18 10:37:12;;;;;;;24.20;13.02;;;4.50;99.90;;;3.98;100.00;99198.66;4938380;28;20039;-43
2022/01/18 10:39:47;;;;;;;24.77;12.77;;;4.60;99.90;;;4.03;100.00;99191.78;4943136;28;20046;-42
2022/01/18 10:42:36;;;;;;;20.58;11.00;;;4.70;99.90;;;4.21;100.00;99204.28;4956439;28;20051;-42
2022/01/18 10:45:06;;;;;;;22.33;11.07;;;4.80;99.90;;;4.23;100.00;99196.47;4971749;28;20361;-44
2022/01/18 10:47:33;;;;;;;19.92;10.45;;;4.90;99.90;;;4.35;100.00;99197.56;4979581;28;20045;-42
2022/01/18 10:50:12;;;;;;;21.05;10.02;;;5.00;99.90;;;4.47;100.00;99189.06;4979128;28;20388;-38
2022/01/18 10:52:38;;;;;;;19.58;9.73;;;5.20;99.90;;;4.79;100.00;99188.66;4981157;28;20034;-41
2022/01/18 10:55:05;;;;;;;19.60;10.07;;;5.40;99.90;;;4.88;100.00;99185.28;4977865;28;20500;-42
2022/01/18 10:57:38;;;;;;;19.23;8.63;;;5.60;99.90;;;5.03;100.00;99175.06;4976340;28;20126;-41
2022/01/18 11:00:20;;;;;;;20.38;10.02;;;5.80;99.90;;;5.14;100.00;99170.84;4978995;28;20527;-43
2022/01/18 11:02:52;;;;;;;17.58;8.88;;;5.90;99.90;;;5.33;100.00;99179.81;4976714;28;20030;-42
2022/01/18 11:05:43;;;;;;;17.48;9.70;;;6.10;99.90;;;5.44;100.00;99182.56;4975479;28;20062;-43
2022/01/18 11:08:09;;;;;;;15.35;9.30;;;6.20;99.90;;;5.55;100.00;99165.25;4980023;28;20034;-41
2022/01/18 11:10:47;;;;;;;22.27;10.38;;;6.30;99.90;;;5.77;99.42;99169.84;4979785;28;20133;-42
2022/01/18 11:13:23;;;;;;;20.17;10.15;;;6.50;99.90;;;5.60;99.52;99138.22;4975343;28;20586;-42
2022/01/18 11:15:52;;;;;;;18.98;10.65;;;6.50;99.90;;;5.76;98.67;99158.50;4974263;28;20062;-44
2022/01/18 11:18:31;;;;;;;22.30;10.23;;;6.50;99.90;;;5.87;98.96;99164.72;4973087;28;20508;-42
2022/01/18 11:21:01;;;;;;;20.23;10.50;;;6.60;99.90;;;5.95;98.96;99156.06;4979050;28;20524;-42
2022/01/18 11:23:33;;;;;;;22.08;11.07;;;6.60;99.90;;;5.99;98.82;99158.75;4979359;28;20054;-42
2022/01/18 11:26:00;;;;;;;18.83;10.90;;;6.70;99.90;;;5.99;97.54;99155.25;4977552;28;20037;-37
2022/01/18 11:28:26;;;;;;;21.27;10.95;;;6.80;99.90;;;5.86;96.68;99155.09;4979469;28;20042;-43
2022/01/18 11:30:52;;;;;;;20.55;10.73;;;6.70;99.90;;;5.88;97.75;99155.97;4977549;28;20671;-40
2022/01/18 11:33:20;;;;;;;24.27;11.38;;;6.70;99.90;;;5.86;98.76;99152.47;4975051;28;20146;-41
2022/01/18 11:36:05;;;;;;;22.75;11.23;;;6.60;99.90;;;5.74;98.82;99160.19;4973993;28;20038;-41
2022/01/18 11:38:36;;;;;;;20.23;10.60;;;6.50;99.90;;;5.65;98.94;99154.88;4974204;28;20090;-41
2022/01/18 11:41:02;;;;;;;24.60;11.05;;;6.40;99.90;;;5.59;100.00;99154.81;4978635;28;20045;-41
2022/01/18 11:43:41;;;;;;;17.95;10.90;;;6.30;99.90;;;5.46;100.00;99165.16;4978609;28;20050;-43